Terminal Aerodrome Forecast
Issued by NWS

Home | Current Version | Previous Version | Text Only | Print | Product List | Glossary On
Versions: 1 2 3 4 5 6 7 8 9 10 11 12 13
000
FTUS45 KGGW 240500
TAFSDY
TAF
KSDY 240520Z 2406/2506 VRB05KT P6SM BKN090
     FM241200 VRB05KT P6SM VCSH FEW025 BKN060
     FM241800 07011KT P6SM VCSH BKN025
     FM250300 VRB06KT P6SM VCSH BKN080
      AMD LTD TO CLD VIS AND WIND=

USA.gov is the U.S. government's official web portal to all federal, state and local government web resources and services.